createdAt,value
2023-01-18T00:01:21.009Z,69.07
2023-01-18T00:03:48.924Z,69.19
2023-01-18T00:06:17.291Z,69.29
2023-01-18T00:08:45.522Z,69.30
2023-01-18T00:11:17.884Z,69.14
2023-01-18T00:13:47.309Z,69.27
2023-01-18T00:16:21.145Z,69.47
2023-01-18T00:18:55.375Z,69.56
2023-01-18T00:21:26.339Z,69.48
2023-01-18T00:23:56.258Z,69.61
2023-01-18T00:26:24.063Z,69.64
2023-01-18T00:28:51.923Z,69.66
2023-01-18T00:31:20.878Z,69.50
2023-01-18T00:33:50.781Z,69.56
2023-01-18T00:36:19.317Z,69.57
2023-01-18T00:38:51.354Z,69.49
2023-01-18T00:41:21.360Z,69.44
2023-01-18T00:43:50.083Z,69.46
2023-01-18T00:46:22.629Z,69.57
2023-01-18T00:48:52.945Z,69.47
2023-01-18T00:51:24.093Z,69.46
2023-01-18T00:53:51.950Z,69.38
2023-01-18T00:56:22.134Z,69.49
2023-01-18T00:58:50.615Z,69.51
2023-01-18T01:01:18.800Z,69.48
2023-01-18T01:04:05.498Z,69.44
2023-01-18T01:06:45.527Z,69.36
2023-01-18T01:09:25.452Z,69.40
2023-01-18T01:12:12.877Z,69.15
2023-01-18T01:15:04.317Z,69.32
2023-01-18T01:17:54.536Z,69.28
2023-01-18T01:20:43.027Z,69.25
2023-01-18T01:23:39.325Z,69.27
2023-01-18T01:26:13.014Z,69.33
2023-01-18T01:28:45.012Z,69.25
2023-01-18T01:31:15.514Z,69.33
2023-01-18T01:33:45.097Z,69.44
2023-01-18T01:36:20.805Z,69.44
2023-01-18T01:38:48.686Z,69.55
2023-01-18T01:41:26.086Z,69.49
2023-01-18T01:44:27.612Z,69.37
2023-01-18T01:46:58.754Z,69.45
2023-01-18T01:49:39.588Z,69.45
2023-01-18T01:52:12.875Z,69.36
2023-01-18T01:55:17.308Z,69.26
2023-01-18T01:57:57.299Z,69.48
2023-01-18T02:00:26.411Z,69.50
2023-01-18T02:03:03.149Z,69.43
2023-01-18T02:05:36.999Z,69.53
2023-01-18T02:08:10.700Z,69.60
2023-01-18T02:10:39.257Z,69.60
2023-01-18T02:13:09.549Z,69.73
2023-01-18T02:15:58.975Z,69.74
2023-01-18T02:18:33.663Z,69.80
2023-01-18T02:21:36.313Z,69.83
2023-01-18T02:24:06.638Z,69.88
2023-01-18T02:26:58.715Z,70.06
2023-01-18T02:29:58.619Z,70.01
2023-01-18T02:33:04.998Z,69.97
2023-01-18T02:35:59.600Z,69.91
2023-01-18T02:38:44.765Z,69.90
2023-01-18T02:42:04.297Z,69.84
2023-01-18T02:45:00.665Z,69.76
2023-01-18T02:47:29.251Z,69.82
2023-01-18T02:49:58.134Z,69.67
2023-01-18T02:52:41.589Z,69.67
2023-01-18T02:55:50.290Z,69.68
2023-01-18T02:58:47.672Z,69.61
2023-01-18T03:01:27.981Z,69.65
2023-01-18T03:04:32.621Z,69.71
2023-01-18T03:07:40.246Z,69.74
2023-01-18T03:10:11.403Z,69.83
2023-01-18T03:12:52.970Z,69.73
2023-01-18T03:15:29.725Z,69.72
2023-01-18T03:18:04.550Z,69.85
2023-01-18T03:20:38.755Z,69.80
2023-01-18T03:23:37.747Z,69.80
2023-01-18T03:26:14.610Z,69.70
2023-01-18T03:29:10.299Z,69.77
2023-01-18T03:32:20.131Z,69.77
2023-01-18T03:35:02.761Z,69.96
2023-01-18T03:37:39.179Z,69.99
2023-01-18T03:40:29.626Z,69.90
2023-01-18T03:43:16.343Z,69.94
2023-01-18T03:45:48.583Z,69.79
2023-01-18T03:48:16.293Z,69.86
2023-01-18T03:51:02.016Z,69.97
2023-01-18T03:53:54.292Z,69.99
2023-01-18T03:56:53.266Z,70.03
2023-01-18T03:59:21.236Z,69.90
2023-01-18T04:01:49.737Z,69.74
2023-01-18T04:04:18.599Z,69.63
2023-01-18T04:06:49.338Z,69.64
2023-01-18T04:09:17.193Z,69.45
2023-01-18T04:11:45.039Z,69.27
2023-01-18T04:14:12.840Z,69.04
2023-01-18T04:16:40.789Z,68.87
2023-01-18T04:19:08.790Z,68.70
2023-01-18T04:21:38.158Z,68.61
2023-01-18T04:24:06.780Z,68.50
2023-01-18T04:26:34.863Z,68.39
2023-01-18T04:29:03.497Z,68.31
2023-01-18T04:31:31.582Z,68.31
2023-01-18T04:33:59.870Z,68.01
2023-01-18T04:36:28.063Z,68.05
2023-01-18T04:38:55.956Z,68.02
2023-01-18T04:41:23.947Z,68.01
2023-01-18T04:43:51.797Z,67.91
2023-01-18T04:46:19.751Z,68.23
2023-01-18T04:48:53.026Z,68.19
2023-01-18T04:51:23.480Z,68.17
2023-01-18T04:53:51.556Z,68.21
2023-01-18T04:56:19.667Z,68.28
2023-01-18T04:58:51.039Z,68.46
2023-01-18T05:01:19.325Z,68.48
2023-01-18T05:03:47.745Z,68.57
2023-01-18T05:06:19.272Z,68.67
2023-01-18T05:08:48.408Z,68.66
2023-01-18T05:11:19.891Z,68.77
2023-01-18T05:13:48.026Z,68.99
2023-01-18T05:16:20.453Z,69.14
2023-01-18T05:18:48.521Z,69.33
2023-01-18T05:21:16.667Z,69.56
2023-01-18T05:23:44.915Z,69.65
2023-01-18T05:26:20.510Z,69.81
2023-01-18T05:28:50.292Z,69.82
2023-01-18T05:31:20.514Z,69.88
2023-01-18T05:33:48.896Z,69.99
2023-01-18T05:36:17.163Z,70.04
2023-01-18T05:38:47.191Z,70.02
2023-01-18T05:41:15.021Z,70.17
2023-01-18T05:43:43.331Z,70.35
2023-01-18T05:46:11.210Z,70.38
2023-01-18T05:48:39.075Z,70.53
2023-01-18T05:51:10.912Z,70.59
2023-01-18T05:53:40.048Z,70.61
2023-01-18T05:56:09.230Z,70.69
2023-01-18T05:58:38.231Z,70.56
2023-01-18T06:01:07.979Z,70.79
2023-01-18T06:03:36.424Z,70.95
2023-01-18T06:06:04.503Z,71.01
2023-01-18T06:08:33.363Z,71.07
2023-01-18T06:11:02.029Z,71.32
2023-01-18T06:13:32.158Z,71.50
2023-01-18T06:16:01.290Z,71.56
2023-01-18T06:18:32.391Z,71.56
2023-01-18T06:21:02.316Z,71.62
2023-01-18T06:23:31.351Z,71.73
2023-01-18T06:25:59.698Z,71.80
2023-01-18T06:28:30.401Z,71.91
2023-01-18T06:30:59.613Z,72.06
2023-01-18T06:33:27.651Z,72.15
2023-01-18T06:35:55.713Z,72.21
2023-01-18T06:38:23.655Z,72.32
2023-01-18T06:40:51.849Z,72.37
2023-01-18T06:43:20.295Z,72.30
2023-01-18T06:45:55.887Z,72.38
2023-01-18T06:48:25.859Z,72.51
2023-01-18T06:50:57.376Z,72.51
2023-01-18T06:53:26.225Z,72.41
2023-01-18T06:55:58.788Z,72.52
2023-01-18T06:58:29.476Z,72.58
2023-01-18T07:00:59.874Z,72.56
2023-01-18T07:03:30.042Z,72.61
2023-01-18T07:06:01.411Z,72.70
2023-01-18T07:08:30.813Z,72.62
2023-01-18T07:11:03.114Z,72.75
2023-01-18T07:13:30.844Z,72.81
2023-01-18T07:16:01.365Z,72.92
2023-01-18T07:18:32.014Z,73.04
2023-01-18T07:21:06.883Z,73.24
2023-01-18T07:23:40.993Z,73.15
2023-01-18T07:26:16.094Z,73.18
2023-01-18T07:28:46.942Z,73.17
2023-01-18T07:31:17.360Z,73.37
2023-01-18T07:33:45.649Z,73.46
2023-01-18T07:36:13.864Z,73.56
2023-01-18T07:38:43.175Z,73.55
2023-01-18T07:41:14.741Z,73.53
2023-01-18T07:43:44.340Z,73.64
2023-01-18T07:46:19.365Z,73.68
2023-01-18T07:48:48.335Z,73.69
2023-01-18T07:51:16.357Z,73.83
2023-01-18T07:53:45.243Z,73.86
2023-01-18T07:56:17.038Z,73.71
2023-01-18T07:58:45.382Z,73.74
2023-01-18T08:01:20.398Z,73.71
2023-01-18T08:03:50.671Z,73.77
2023-01-18T08:06:25.091Z,73.82
2023-01-18T08:08:56.527Z,73.90
2023-01-18T08:11:24.571Z,74.04
2023-01-18T08:13:52.657Z,74.06
2023-01-18T08:16:21.047Z,73.98
2023-01-18T08:18:55.381Z,74.09
2023-01-18T08:21:23.868Z,74.17
2023-01-18T08:23:54.914Z,74.17
2023-01-18T08:26:22.917Z,74.29
2023-01-18T08:28:51.336Z,74.40
2023-01-18T08:31:21.629Z,74.34
2023-01-18T08:33:50.444Z,74.44
2023-01-18T08:36:21.834Z,74.43
2023-01-18T08:38:52.504Z,74.31
2023-01-18T08:41:23.246Z,74.27
2023-01-18T08:43:51.865Z,74.29
2023-01-18T08:46:21.224Z,74.39
2023-01-18T08:48:51.887Z,74.54
2023-01-18T08:51:22.332Z,74.52
2023-01-18T08:53:56.690Z,74.57
2023-01-18T08:56:26.208Z,74.75
2023-01-18T08:58:54.373Z,74.62
2023-01-18T09:01:22.658Z,74.62
2023-01-18T09:03:55.147Z,74.71
2023-01-18T09:06:24.013Z,74.69
2023-01-18T09:08:52.531Z,74.69
2023-01-18T09:11:20.561Z,74.82
2023-01-18T09:14:00.200Z,74.75
2023-01-18T09:16:30.562Z,74.78
2023-01-18T09:18:59.379Z,74.72
2023-01-18T09:21:28.153Z,74.65
2023-01-18T09:23:56.519Z,74.70
2023-01-18T09:26:24.588Z,74.76
2023-01-18T09:28:53.646Z,74.79
2023-01-18T09:31:26.005Z,74.89
2023-01-18T09:33:57.364Z,74.96
2023-01-18T09:36:30.284Z,75.00
2023-01-18T09:38:58.360Z,74.97
2023-01-18T09:41:49.034Z,74.79
2023-01-18T09:44:37.993Z,74.81
2023-01-18T09:47:28.185Z,74.94
2023-01-18T09:49:59.453Z,74.90
2023-01-18T09:52:48.881Z,74.91
2023-01-18T09:55:56.255Z,75.00
2023-01-18T09:58:57.875Z,74.98
2023-01-18T10:01:31.397Z,74.97
2023-01-18T10:04:35.689Z,75.19
2023-01-18T10:07:12.123Z,75.17
2023-01-18T10:09:57.438Z,75.44
2023-01-18T10:12:53.551Z,75.30
2023-01-18T10:15:33.805Z,75.30
2023-01-18T10:18:01.972Z,74.92
2023-01-18T10:20:45.935Z,74.88
2023-01-18T10:23:47.735Z,74.89
2023-01-18T10:26:30.903Z,74.76
2023-01-18T10:29:26.457Z,74.71
2023-01-18T10:32:02.474Z,74.74
2023-01-18T10:34:40.540Z,74.72
2023-01-18T10:37:42.940Z,74.67
2023-01-18T10:40:14.313Z,74.79
2023-01-18T10:42:48.807Z,74.83
2023-01-18T10:45:34.089Z,74.77
2023-01-18T10:48:31.416Z,74.72
2023-01-18T10:51:06.130Z,74.82
2023-01-18T10:53:37.809Z,74.84
2023-01-18T10:56:24.978Z,74.71
2023-01-18T10:58:59.476Z,74.70
2023-01-18T11:01:32.816Z,74.81
2023-01-18T11:04:22.332Z,74.93
2023-01-18T11:06:55.523Z,74.90
2023-01-18T11:09:41.300Z,74.69
2023-01-18T11:12:51.695Z,74.78
2023-01-18T11:15:43.471Z,74.80
2023-01-18T11:18:12.643Z,74.80
2023-01-18T11:20:50.199Z,74.86
2023-01-18T11:23:27.550Z,74.97
2023-01-18T11:26:15.204Z,74.98
2023-01-18T11:29:06.709Z,74.88
2023-01-18T11:31:49.456Z,74.78
2023-01-18T11:34:38.038Z,74.78
2023-01-18T11:37:34.153Z,75.02
2023-01-18T11:40:21.586Z,75.01
2023-01-18T11:42:52.752Z,75.07
2023-01-18T11:46:01.110Z,74.93
2023-01-18T11:48:57.489Z,74.92
2023-01-18T11:51:57.123Z,74.82
2023-01-18T11:54:46.059Z,74.97
2023-01-18T11:57:15.226Z,75.00
2023-01-18T11:59:46.199Z,75.08
2023-01-18T12:02:23.900Z,75.13
2023-01-18T12:05:03.650Z,75.00
2023-01-18T12:08:10.062Z,74.87
2023-01-18T12:11:07.027Z,75.02
2023-01-18T12:14:00.996Z,74.93
2023-01-18T12:17:21.658Z,75.00
2023-01-18T12:19:59.560Z,75.00
2023-01-18T12:23:02.139Z,74.96
2023-01-18T12:26:17.404Z,74.99
2023-01-18T12:29:23.664Z,74.94
2023-01-18T12:32:10.355Z,74.97
2023-01-18T12:35:26.987Z,75.13
2023-01-18T12:38:07.430Z,75.04
2023-01-18T12:41:08.523Z,74.95
2023-01-18T12:44:16.613Z,74.93
2023-01-18T12:47:17.094Z,75.01
2023-01-18T12:49:50.674Z,75.08
2023-01-18T12:52:22.907Z,75.04
2023-01-18T12:54:55.395Z,75.01
2023-01-18T12:57:26.446Z,75.17
2023-01-18T13:00:05.635Z,75.21
2023-01-18T13:02:39.429Z,75.20
2023-01-18T13:05:17.378Z,75.16
2023-01-18T13:07:56.653Z,75.04
2023-01-18T13:10:28.298Z,75.01
2023-01-18T13:12:57.682Z,74.98
2023-01-18T13:15:41.908Z,74.92
2023-01-18T13:18:27.040Z,74.89
2023-01-18T13:21:11.101Z,74.90
2023-01-18T13:23:59.523Z,74.94
2023-01-18T13:26:31.615Z,74.94
2023-01-18T13:29:29.184Z,74.95
2023-01-18T13:31:57.959Z,74.99
2023-01-18T13:34:48.099Z,74.98
2023-01-18T13:37:54.943Z,74.93
2023-01-18T13:40:54.483Z,74.96
2023-01-18T13:43:35.836Z,75.04
2023-01-18T13:46:25.629Z,75.12
2023-01-18T13:48:56.795Z,75.00
2023-01-18T13:51:40.221Z,75.15
2023-01-18T13:54:23.215Z,75.10
2023-01-18T13:57:24.183Z,75.12
2023-01-18T13:59:52.059Z,75.00
2023-01-18T14:02:32.110Z,75.01
2023-01-18T14:05:16.004Z,75.07
2023-01-18T14:07:48.396Z,75.09
2023-01-18T14:10:38.551Z,75.11
2023-01-18T14:13:16.941Z,75.09
2023-01-18T14:15:54.743Z,75.31
2023-01-18T14:18:25.523Z,75.32
2023-01-18T14:21:24.401Z,75.32
2023-01-18T14:24:28.804Z,75.02
2023-01-18T14:26:59.428Z,74.98
2023-01-18T14:29:46.705Z,75.09
2023-01-18T14:32:42.417Z,74.78
2023-01-18T14:35:25.910Z,74.92
2023-01-18T14:38:18.757Z,75.02
2023-01-18T14:40:50.722Z,75.16
2023-01-18T14:43:30.014Z,75.20
2023-01-18T14:46:04.966Z,75.25
2023-01-18T14:48:42.487Z,75.21
2023-01-18T14:51:17.706Z,75.39
2023-01-18T14:53:52.256Z,75.39
2023-01-18T14:56:23.885Z,75.29
2023-01-18T14:59:15.944Z,75.21
2023-01-18T15:01:59.622Z,75.04
2023-01-18T15:04:31.141Z,75.19
2023-01-18T15:07:10.038Z,75.19
2023-01-18T15:09:41.633Z,75.14
2023-01-18T15:12:15.836Z,75.14
2023-01-18T15:14:47.891Z,75.20
2023-01-18T15:17:23.376Z,75.17
2023-01-18T15:19:56.402Z,75.15
2023-01-18T15:22:31.732Z,75.06
2023-01-18T15:25:00.901Z,75.17
2023-01-18T15:27:32.091Z,75.28
2023-01-18T15:30:01.758Z,75.31
2023-01-18T15:32:32.392Z,75.29
2023-01-18T15:35:02.456Z,74.99
2023-01-18T15:37:38.353Z,75.07
2023-01-18T15:40:12.248Z,75.06
2023-01-18T15:43:07.944Z,75.13
2023-01-18T15:45:48.907Z,75.20
2023-01-18T15:48:23.263Z,75.09
2023-01-18T15:50:52.030Z,75.05
2023-01-18T15:53:37.380Z,74.91
2023-01-18T15:56:17.908Z,75.17
2023-01-18T15:58:49.605Z,75.22
2023-01-18T16:01:21.097Z,75.31
2023-01-18T16:03:48.935Z,75.36
2023-01-18T16:06:19.461Z,75.18
2023-01-18T16:09:20.625Z,75.21
2023-01-18T16:11:53.715Z,75.31
2023-01-18T16:14:30.909Z,75.31
2023-01-18T16:17:11.858Z,75.15
2023-01-18T16:19:47.445Z,75.25
2023-01-18T16:22:36.129Z,75.29
2023-01-18T16:25:09.566Z,75.36
2023-01-18T16:27:53.400Z,75.27
2023-01-18T16:30:47.659Z,75.35
2023-01-18T16:33:20.242Z,75.37
2023-01-18T16:35:49.123Z,75.38
2023-01-18T16:38:23.307Z,75.49
2023-01-18T16:40:51.304Z,75.52
2023-01-18T16:43:19.565Z,75.43
2023-01-18T16:45:50.923Z,75.48
2023-01-18T16:48:23.357Z,75.59
2023-01-18T16:50:52.828Z,75.64
2023-01-18T16:53:20.959Z,75.49
2023-01-18T16:55:48.878Z,75.53
2023-01-18T16:58:20.880Z,75.72
2023-01-18T17:01:10.596Z,75.74
2023-01-18T17:03:38.982Z,75.76
2023-01-18T17:06:09.832Z,75.71
2023-01-18T17:08:37.690Z,75.66
2023-01-18T17:11:05.510Z,75.59
2023-01-18T17:13:33.277Z,75.48
2023-01-18T17:16:01.206Z,75.51
2023-01-18T17:18:32.223Z,75.57
2023-01-18T17:21:00.431Z,75.45
2023-01-18T17:23:28.224Z,75.41
2023-01-18T17:25:56.098Z,75.34
2023-01-18T17:28:26.076Z,75.39
2023-01-18T17:30:54.301Z,75.49
2023-01-18T17:33:27.234Z,75.42
2023-01-18T17:35:55.086Z,75.36
2023-01-18T17:38:25.702Z,75.40
2023-01-18T17:40:55.420Z,75.54
2023-01-18T17:43:33.370Z,75.52
2023-01-18T17:46:05.524Z,75.53
2023-01-18T17:48:33.580Z,75.46
2023-01-18T17:51:11.625Z,75.46
2023-01-18T17:53:41.344Z,75.45
2023-01-18T17:56:14.357Z,75.48
2023-01-18T17:58:48.790Z,75.42
2023-01-18T18:01:18.224Z,75.44
2023-01-18T18:03:49.745Z,75.45
2023-01-18T18:06:30.249Z,75.46
2023-01-18T18:09:00.368Z,75.21
2023-01-18T18:11:28.917Z,75.37
2023-01-18T18:13:58.275Z,75.43
2023-01-18T18:16:26.260Z,75.47
2023-01-18T18:18:54.037Z,75.38
2023-01-18T18:21:26.243Z,75.48
2023-01-18T18:23:53.922Z,75.39
2023-01-18T18:26:21.714Z,75.61
2023-01-18T18:28:49.689Z,75.65
2023-01-18T18:31:18.094Z,75.73
2023-01-18T18:33:46.062Z,75.73
2023-01-18T18:36:13.919Z,75.69
2023-01-18T18:38:41.988Z,75.59
2023-01-18T18:41:10.018Z,75.73
2023-01-18T18:43:37.959Z,75.87
2023-01-18T18:46:06.215Z,75.87
2023-01-18T18:48:34.192Z,75.99
2023-01-18T18:51:02.058Z,75.95
2023-01-18T18:53:38.266Z,75.93
2023-01-18T18:56:09.020Z,75.91
2023-01-18T18:58:38.331Z,75.76
2023-01-18T19:01:16.815Z,75.74
2023-01-18T19:03:44.750Z,75.66
2023-01-18T19:06:12.737Z,75.73
2023-01-18T19:08:40.579Z,75.73
2023-01-18T19:11:08.683Z,75.71
2023-01-18T19:13:37.180Z,75.58
2023-01-18T19:16:06.075Z,75.49
2023-01-18T19:18:34.407Z,75.50
2023-01-18T19:21:02.873Z,75.67
2023-01-18T19:23:31.009Z,75.66
2023-01-18T19:25:58.877Z,75.68
2023-01-18T19:28:27.241Z,75.61
2023-01-18T19:31:06.058Z,75.51
2023-01-18T19:33:34.113Z,75.61
2023-01-18T19:36:14.809Z,75.62
2023-01-18T19:38:49.230Z,75.55
2023-01-18T19:41:20.458Z,75.60
2023-01-18T19:43:49.771Z,75.40
2023-01-18T19:46:19.618Z,75.36
2023-01-18T19:48:47.345Z,75.28
2023-01-18T19:51:22.497Z,75.22
2023-01-18T19:53:53.905Z,75.40
2023-01-18T19:56:24.419Z,75.45
2023-01-18T19:58:52.478Z,75.50
2023-01-18T20:01:35.175Z,75.49
2023-01-18T20:04:06.230Z,75.61
2023-01-18T20:06:36.907Z,75.44
2023-01-18T20:09:17.731Z,75.26
2023-01-18T20:11:47.554Z,75.46
2023-01-18T20:14:16.190Z,75.53
2023-01-18T20:16:46.125Z,75.44
2023-01-18T20:19:15.276Z,75.44
2023-01-18T20:21:43.325Z,75.44
2023-01-18T20:24:11.478Z,75.46
2023-01-18T20:26:41.740Z,75.32
2023-01-18T20:29:10.077Z,75.22
2023-01-18T20:31:39.063Z,75.43
2023-01-18T20:34:07.225Z,75.45
2023-01-18T20:36:36.082Z,75.48
2023-01-18T20:39:05.633Z,75.45
2023-01-18T20:41:33.635Z,75.52
2023-01-18T20:44:01.629Z,75.40
2023-01-18T20:46:29.653Z,75.46
2023-01-18T20:48:58.544Z,75.49
2023-01-18T20:51:26.590Z,75.36
2023-01-18T20:53:54.546Z,75.41
2023-01-18T20:56:29.271Z,75.45
2023-01-18T20:58:59.428Z,75.28
2023-01-18T21:01:36.408Z,75.29
2023-01-18T21:04:05.124Z,75.19
2023-01-18T21:06:33.434Z,75.09
2023-01-18T21:09:01.653Z,75.17
2023-01-18T21:11:29.608Z,75.11
2023-01-18T21:14:02.566Z,75.09
2023-01-18T21:16:31.167Z,75.12
2023-01-18T21:18:59.361Z,75.17
2023-01-18T21:21:28.789Z,75.19
2023-01-18T21:23:57.126Z,75.12
2023-01-18T21:26:25.462Z,75.13
2023-01-18T21:28:54.528Z,75.03
2023-01-18T21:31:22.456Z,74.97
2023-01-18T21:33:51.187Z,74.91
2023-01-18T21:36:23.057Z,74.93
2023-01-18T21:38:51.873Z,75.00
2023-01-18T21:41:40.036Z,74.96
2023-01-18T21:44:32.595Z,74.99
2023-01-18T21:47:00.902Z,75.03
2023-01-18T21:50:15.461Z,75.10
2023-01-18T21:52:58.738Z,74.99
2023-01-18T21:55:27.282Z,74.96
2023-01-18T21:58:13.896Z,74.84
2023-01-18T22:00:41.866Z,75.00
2023-01-18T22:03:09.730Z,75.21
2023-01-18T22:05:40.945Z,75.19
2023-01-18T22:08:09.647Z,75.01
2023-01-18T22:10:37.613Z,74.97
2023-01-18T22:13:05.830Z,75.04
2023-01-18T22:15:33.824Z,75.08
2023-01-18T22:18:05.356Z,75.01
2023-01-18T22:20:33.284Z,75.22
2023-01-18T22:23:01.221Z,75.31
2023-01-18T22:25:28.993Z,75.49
2023-01-18T22:27:56.978Z,75.55
2023-01-18T22:30:25.450Z,75.77
2023-01-18T22:32:59.836Z,75.96
2023-01-18T22:35:29.937Z,76.13
2023-01-18T22:38:41.128Z,76.05
2023-01-18T22:41:20.027Z,76.10
2023-01-18T22:43:48.582Z,76.08
2023-01-18T22:46:19.809Z,76.01
2023-01-18T22:48:48.596Z,76.07
2023-01-18T22:51:20.991Z,76.02
2023-01-18T22:53:57.440Z,76.19
2023-01-18T22:56:25.852Z,76.03
2023-01-18T22:58:54.193Z,76.16
2023-01-18T23:01:40.418Z,76.27
2023-01-18T23:04:09.245Z,76.29
2023-01-18T23:06:48.326Z,76.23
2023-01-18T23:09:18.256Z,76.22
2023-01-18T23:11:50.975Z,76.06
2023-01-18T23:14:37.067Z,75.95
2023-01-18T23:17:23.523Z,76.00
2023-01-18T23:19:51.992Z,76.06
2023-01-18T23:22:20.191Z,76.28
2023-01-18T23:24:48.291Z,76.39
2023-01-18T23:30:28.585Z,76.39
2023-01-18T23:32:56.857Z,76.38
2023-01-18T23:35:42.499Z,76.39
2023-01-18T23:38:27.980Z,76.61
2023-01-18T23:41:21.757Z,76.65
2023-01-18T23:44:43.276Z,76.67
2023-01-18T23:47:32.364Z,76.57
2023-01-18T23:50:18.645Z,76.45
2023-01-18T23:53:08.497Z,76.42
2023-01-18T23:55:36.537Z,76.58
2023-01-18T23:58:04.932Z,76.53
